Time;durP1;ratioP1;P1;durP2;ratioP2;P2;SDS_P1;SDS_P2;PMS_P1;PMS_P2;Temp;Humidity;BMP_temperature;BMP_pressure;BME280_temperature;BME280_humidity;BME280_pressure;Samples;Min_cycle;Max_cycle;Signal;HPM_P1;HPM_P2
2022/07/28 00:00:37;;;;;;;7.45;2.38;;;19.90;69.60;;;;;;5032576;28;20473;-80
2022/07/28 00:03:03;;;;;;;5.45;1.30;;;20.00;70.50;;;;;;5032562;28;20026;-80
2022/07/28 00:05:28;;;;;;;4.20;1.25;;;20.10;69.40;;;;;;5032763;28;20084;-79
2022/07/28 00:07:55;;;;;;;2.75;1.08;;;19.90;67.30;;;;;;5032150;28;20030;-79
2022/07/28 00:10:20;;;;;;;4.80;1.45;;;19.70;68.80;;;;;;5032813;28;20033;-79
2022/07/28 00:12:46;;;;;;;3.28;1.23;;;19.80;69.50;;;;;;5032677;28;20022;-80
2022/07/28 00:15:14;;;;;;;5.45;1.40;;;19.70;68.80;;;;;;5033052;28;20021;-79
2022/07/28 00:17:40;;;;;;;2.22;0.60;;;19.70;68.80;;;;;;5032088;28;20496;-79
2022/07/28 00:20:06;;;;;;;3.08;1.45;;;19.70;69.50;;;;;;5032508;28;20028;-79
2022/07/28 00:22:32;;;;;;;2.10;0.70;;;19.70;68.70;;;;;;5034262;28;20022;-79
2022/07/28 00:24:57;;;;;;;4.38;1.40;;;19.60;68.50;;;;;;5036228;28;20087;-80
2022/07/28 00:27:23;;;;;;;6.70;0.90;;;19.70;70.60;;;;;;5035964;28;20114;-80
2022/07/28 00:29:49;;;;;;;4.45;0.70;;;19.70;69.00;;;;;;5036594;28;20112;-76
2022/07/28 00:32:15;;;;;;;6.10;0.70;;;19.70;69.30;;;;;;5035573;28;20112;-76
2022/07/28 00:34:41;;;;;;;3.42;1.00;;;19.70;69.70;;;;;;5036215;28;20067;-76
2022/07/28 00:37:10;;;;;;;2.25;0.50;;;19.70;68.60;;;;;;5035807;28;20022;-76
2022/07/28 00:39:35;;;;;;;2.70;0.93;;;19.60;69.60;;;;;;5036323;28;20025;-77
2022/07/28 00:42:01;;;;;;;1.23;0.50;;;19.70;70.00;;;;;;5035736;28;20480;-77
2022/07/28 00:44:26;;;;;;;4.30;0.80;;;19.70;70.40;;;;;;5035951;28;20046;-77
2022/07/28 00:46:52;;;;;;;3.58;0.77;;;19.70;69.80;;;;;;5035158;28;20469;-76
2022/07/28 00:49:18;;;;;;;4.15;1.25;;;19.70;70.20;;;;;;5036114;28;20109;-77
2022/07/28 00:51:45;;;;;;;3.17;0.80;;;19.70;69.80;;;;;;5035258;28;20028;-77
2022/07/28 00:54:11;;;;;;;1.77;0.50;;;19.80;70.50;;;;;;5034299;28;20030;-77
2022/07/28 00:56:37;;;;;;;1.70;0.70;;;19.80;70.00;;;;;;5035366;28;20026;-77
2022/07/28 02:22:37;;;;;;;2.92;0.40;;;19.80;70.50;;;;;;5023069;28;20156;-76
2022/07/28 02:25:03;;;;;;;1.98;0.20;;;19.60;70.50;;;;;;5034335;28;20049;-76
2022/07/28 02:27:36;;;;;;;0.88;0.20;;;19.60;71.00;;;;;;5033666;28;20499;-76
2022/07/28 02:30:07;;;;;;;3.33;0.43;;;19.60;71.20;;;;;;5033487;28;20720;-76
2022/07/28 02:32:35;;;;;;;3.42;0.32;;;19.40;70.30;;;;;;5033681;28;20018;-76
2022/07/28 02:35:15;;;;;;;3.15;0.50;;;19.30;71.40;;;;;;5034193;28;20037;-76
2022/07/28 02:37:46;;;;;;;2.15;0.30;;;19.30;71.10;;;;;;5033574;28;20025;-76
2022/07/28 02:40:14;;;;;;;4.07;0.35;;;19.10;71.00;;;;;;5034175;28;20060;-76
2022/07/28 02:42:45;;;;;;;2.60;0.30;;;19.20;72.30;;;;;;5033487;28;20021;-76
2022/07/28 02:45:14;;;;;;;1.50;0.20;;;19.10;69.80;;;;;;5033982;28;20265;-76
2022/07/28 02:47:48;;;;;;;2.72;0.43;;;18.90;71.00;;;;;;5033569;28;20398;-76
2022/07/28 02:50:18;;;;;;;1.00;0.25;;;18.90;70.80;;;;;;5034026;28;20094;-76
2022/07/28 02:52:45;;;;;;;4.28;0.40;;;18.90;70.50;;;;;;5033255;28;20032;-76
2022/07/28 02:55:14;;;;;;;3.95;0.40;;;18.90;70.70;;;;;;5033641;28;20472;-76
2022/07/28 02:57:41;;;;;;;2.28;0.40;;;18.80;71.40;;;;;;5033572;28;20036;-76
2022/07/28 03:00:08;;;;;;;1.92;0.30;;;18.70;71.20;;;;;;5033724;28;20044;-76
2022/07/28 03:02:35;;;;;;;1.25;0.20;;;18.70;70.50;;;;;;5033237;28;20369;-76
2022/07/28 03:05:02;;;;;;;4.70;0.35;;;18.50;70.60;;;;;;5033526;28;20095;-76
2022/07/28 03:07:34;;;;;;;2.90;0.20;;;18.50;70.10;;;;;;5033216;28;20096;-76
2022/07/28 03:10:02;;;;;;;4.13;0.40;;;18.40;71.00;;;;;;5033444;28;20480;-76
2022/07/28 03:12:28;;;;;;;3.45;0.40;;;18.30;70.30;;;;;;5033323;28;20096;-76
2022/07/28 03:14:53;;;;;;;3.83;0.32;;;18.20;70.80;;;;;;5033202;28;20551;-76
2022/07/28 03:17:19;;;;;;;3.00;0.30;;;18.10;72.10;;;;;;5033226;28;20108;-76
2022/07/28 03:19:44;;;;;;;2.50;0.57;;;18.10;71.60;;;;;;5033691;28;20032;-76
2022/07/28 03:22:10;;;;;;;2.92;0.30;;;18.00;71.20;;;;;;5032479;28;20325;-76
2022/07/28 03:24:39;;;;;;;3.20;0.30;;;17.80;72.10;;;;;;5033338;28;20044;-76
2022/07/28 03:27:24;;;;;;;3.15;0.30;;;17.50;72.40;;;;;;5032777;28;20022;-76
2022/07/28 03:30:11;;;;;;;2.58;0.30;;;17.60;73.40;;;;;;5033527;28;20087;-76
2022/07/28 03:32:41;;;;;;;4.13;0.50;;;17.60;73.20;;;;;;5020528;28;20061;-77
2022/07/28 03:35:08;;;;;;;2.60;0.50;;;17.70;73.00;;;;;;5033177;28;20034;-77
2022/07/28 03:37:53;;;;;;;2.00;0.40;;;17.80;73.10;;;;;;5032803;28;20445;-77
2022/07/28 03:40:22;;;;;;;2.17;0.30;;;17.80;72.60;;;;;;5033105;28;20034;-77
2022/07/28 03:42:49;;;;;;;2.80;0.35;;;17.80;72.20;;;;;;5032706;28;20053;-77
2022/07/28 03:45:16;;;;;;;2.65;0.20;;;17.80;73.70;;;;;;5032945;28;20404;-77
2022/07/28 03:48:08;;;;;;;3.42;0.73;;;17.90;74.20;;;;;;5032936;28;20021;-77
2022/07/28 03:50:34;;;;;;;1.10;0.30;;;18.00;74.50;;;;;;5028679;28;20485;-77
2022/07/28 03:53:03;;;;;;;1.42;0.40;;;18.10;74.00;;;;;;5032496;28;20105;-77
2022/07/28 03:55:29;;;;;;;3.78;0.40;;;18.10;73.00;;;;;;5032632;28;20104;-77
2022/07/28 03:57:56;;;;;;;3.83;0.22;;;18.00;74.10;;;;;;5035723;28;20112;-77
2022/07/28 04:00:22;;;;;;;2.47;0.40;;;18.10;73.70;;;;;;5037068;28;20430;-78
2022/07/28 04:02:47;;;;;;;2.10;0.30;;;18.20;73.80;;;;;;5036425;28;20108;-78
2022/07/28 04:05:16;;;;;;;1.65;0.20;;;18.30;74.60;;;;;;5036514;28;20045;-78
2022/07/28 04:07:42;;;;;;;1.73;0.30;;;18.40;73.00;;;;;;5036132;28;20041;-77
2022/07/28 04:10:10;;;;;;;1.60;0.30;;;18.50;72.70;;;;;;5036427;28;20113;-78
2022/07/28 04:12:55;;;;;;;1.67;0.30;;;18.50;72.40;;;;;;5036008;28;20025;-77
2022/07/28 04:15:22;;;;;;;2.10;0.30;;;18.30;72.60;;;;;;5036835;28;20029;-78
2022/07/28 04:17:49;;;;;;;3.38;0.30;;;18.30;73.20;;;;;;5036039;28;20029;-78
2022/07/28 04:20:16;;;;;;;2.17;0.32;;;18.20;73.70;;;;;;5036345;28;20026;-77
2022/07/28 04:22:43;;;;;;;2.80;0.30;;;18.30;72.80;;;;;;5035800;28;20106;-77
2022/07/28 04:25:11;;;;;;;2.42;0.20;;;18.30;73.10;;;;;;5036451;28;20172;-77
2022/07/28 04:27:38;;;;;;;3.53;0.52;;;18.30;72.90;;;;;;5035917;28;20029;-77
2022/07/28 04:30:12;;;;;;;3.50;0.30;;;18.20;72.50;;;;;;5036149;28;20028;-78
2022/07/28 04:32:40;;;;;;;1.83;0.25;;;18.20;73.30;;;;;;5036031;28;20030;-77
2022/07/28 04:35:07;;;;;;;1.90;0.40;;;18.10;74.00;;;;;;5036392;28;20025;-77
2022/07/28 04:37:33;;;;;;;3.40;0.80;;;18.10;74.00;;;;;;5035570;28;20477;-77
2022/07/28 04:39:59;;;;;;;4.75;0.63;;;18.20;73.00;;;;;;5036199;28;20036;-78
2022/07/28 04:42:24;;;;;;;2.75;0.35;;;17.90;73.00;;;;;;5035735;28;20049;-78
2022/07/28 04:44:50;;;;;;;2.92;0.45;;;17.90;74.40;;;;;;5035866;28;20041;-78
2022/07/28 04:47:16;;;;;;;2.83;0.45;;;17.90;74.00;;;;;;5035484;28;20032;-78
2022/07/28 04:49:41;;;;;;;2.30;0.73;;;17.90;73.70;;;;;;5036291;28;20100;-78
2022/07/28 04:52:07;;;;;;;1.80;0.30;;;17.80;74.40;;;;;;5035479;28;20369;-78
2022/07/28 04:54:36;;;;;;;2.38;0.30;;;17.80;74.90;;;;;;5035619;28;20030;-78
2022/07/28 04:57:02;;;;;;;3.33;0.28;;;17.80;74.70;;;;;;5035019;28;20038;-78
2022/07/28 04:59:28;;;;;;;3.75;0.47;;;17.80;74.10;;;;;;5036020;28;20025;-78
2022/07/28 05:01:55;;;;;;;5.68;0.95;;;17.80;74.50;;;;;;5035159;28;20099;-78
2022/07/28 05:04:21;;;;;;;2.08;0.35;;;17.80;74.80;;;;;;5015758;28;20033;-78
2022/07/28 05:06:46;;;;;;;4.55;0.30;;;17.90;74.40;;;;;;5018037;28;20038;-78
2022/07/28 05:09:12;;;;;;;3.33;0.45;;;17.90;73.60;;;;;;5034180;28;20032;-77
2022/07/28 05:11:37;;;;;;;4.47;0.40;;;17.90;73.60;;;;;;5035132;28;20045;-77
2022/07/28 05:14:03;;;;;;;4.05;0.30;;;17.80;74.30;;;;;;5035145;28;20038;-76
2022/07/28 05:16:29;;;;;;;4.57;0.50;;;17.80;74.30;;;;;;5034720;28;20461;-77
2022/07/28 05:18:54;;;;;;;1.52;0.22;;;17.80;75.10;;;;;;5034997;28;20136;-77
2022/07/28 05:21:20;;;;;;;2.70;0.40;;;17.70;74.70;;;;;;5035053;28;20021;-76
2022/07/28 05:23:45;;;;;;;5.57;0.30;;;17.70;74.70;;;;;;5035108;28;20079;-76
2022/07/28 05:26:11;;;;;;;1.02;0.40;;;17.80;74.80;;;;;;5035509;28;20373;-77
2022/07/28 05:28:36;;;;;;;1.30;0.30;;;17.80;74.40;;;;;;5034809;28;20049;-77
2022/07/28 05:31:02;;;;;;;3.38;0.38;;;17.80;74.40;;;;;;5035021;28;20067;-77
2022/07/28 05:33:28;;;;;;;3.40;0.40;;;17.70;73.90;;;;;;5034904;28;20055;-76
2022/07/28 05:35:58;;;;;;;2.03;0.30;;;17.30;74.70;;;;;;5035121;28;20112;-76
2022/07/28 05:38:24;;;;;;;3.15;0.88;;;17.20;75.30;;;;;;5034867;28;20049;-76
2022/07/28 05:40:51;;;;;;;2.75;0.57;;;17.30;75.60;;;;;;5034967;28;20440;-76
2022/07/28 05:43:17;;;;;;;4.97;0.47;;;17.20;75.90;;;;;;5034939;28;20040;-76
2022/07/28 05:45:42;;;;;;;3.92;0.60;;;17.30;75.90;;;;;;5034491;28;20132;-75
2022/07/28 05:48:08;;;;;;;4.32;0.20;;;17.40;75.50;;;;;;5034327;28;20366;-75
2022/07/28 05:50:34;;;;;;;4.40;0.50;;;17.50;76.00;;;;;;5034783;28;20095;-76
2022/07/28 05:53:00;;;;;;;5.13;0.40;;;17.50;75.00;;;;;;5034120;28;20354;-76
2022/07/28 05:55:26;;;;;;;3.20;0.30;;;17.30;75.90;;;;;;5034543;28;20034;-77
2022/07/28 05:57:53;;;;;;;3.92;0.50;;;17.30;76.00;;;;;;5033916;28;20545;-76
2022/07/28 06:00:21;;;;;;;5.75;0.73;;;17.20;75.70;;;;;;5034479;28;20026;-76
2022/07/28 06:02:48;;;;;;;4.05;0.70;;;17.20;76.20;;;;;;5034492;28;20026;-76
2022/07/28 06:05:16;;;;;;;2.40;0.30;;;17.30;76.30;;;;;;5034531;28;20366;-77
2022/07/28 06:07:42;;;;;;;3.08;0.30;;;17.20;76.30;;;;;;5034244;28;20378;-76
2022/07/28 06:10:08;;;;;;;5.13;0.90;;;17.20;76.30;;;;;;5034063;28;20022;-77
2022/07/28 06:12:42;;;;;;;2.55;0.35;;;17.30;76.60;;;;;;5033848;28;20025;-75
2022/07/28 06:15:13;;;;;;;5.50;0.55;;;17.30;76.80;;;;;;5034108;28;20034;-76
2022/07/28 06:17:38;;;;;;;4.13;0.45;;;17.40;76.10;;;;;;5034139;28;20036;-75
2022/07/28 06:20:05;;;;;;;4.68;0.40;;;17.50;76.60;;;;;;5033463;28;20389;-76
2022/07/28 06:22:40;;;;;;;4.82;0.70;;;17.40;76.10;;;;;;5033426;28;20050;-76
2022/07/28 06:25:06;;;;;;;6.05;0.60;;;17.40;76.60;;;;;;5034009;28;20076;-76
2022/07/28 06:27:32;;;;;;;5.43;0.30;;;17.50;76.40;;;;;;5033502;28;20018;-76
2022/07/28 06:29:57;;;;;;;3.35;0.30;;;17.70;76.00;;;;;;5034089;28;20029;-76
2022/07/28 06:32:23;;;;;;;2.88;0.20;;;17.80;76.00;;;;;;5032618;28;20026;-76
2022/07/28 06:34:48;;;;;;;4.35;0.30;;;17.80;75.90;;;;;;5033750;28;20060;-76
2022/07/28 06:37:14;;;;;;;2.95;0.30;;;17.90;75.50;;;;;;5033298;28;20025;-76
2022/07/28 06:39:40;;;;;;;2.08;0.20;;;18.00;75.10;;;;;;5033747;28;20028;-77
2022/07/28 06:42:05;;;;;;;1.65;0.40;;;17.90;75.50;;;;;;5033059;28;20602;-77
2022/07/28 06:44:31;;;;;;;2.78;0.20;;;18.10;76.30;;;;;;5033342;28;20065;-77
2022/07/28 06:46:57;;;;;;;8.18;1.30;;;18.00;74.80;;;;;;5033469;28;20017;-76
2022/07/28 06:49:22;;;;;;;2.70;0.43;;;18.00;75.20;;;;;;5033454;28;20022;-76
2022/07/28 06:51:48;;;;;;;4.55;0.68;;;18.10;74.90;;;;;;5033403;28;20033;-76
2022/07/28 06:54:13;;;;;;;3.13;0.55;;;18.10;74.30;;;;;;5032998;28;20611;-76
2022/07/28 06:56:39;;;;;;;3.97;0.20;;;18.10;74.30;;;;;;5033353;28;20018;-76
2022/07/28 06:59:04;;;;;;;3.45;0.82;;;18.10;73.90;;;;;;5033013;28;20056;-76
2022/07/28 07:01:30;;;;;;;3.28;0.20;;;18.20;74.10;;;;;;5033537;28;20020;-76
2022/07/28 07:03:55;;;;;;;3.22;0.30;;;18.30;73.80;;;;;;5032997;28;20080;-76
2022/07/28 07:06:24;;;;;;;1.67;0.28;;;18.30;73.90;;;;;;5033391;28;20496;-76
2022/07/28 07:08:50;;;;;;;5.70;0.30;;;18.50;73.30;;;;;;5032923;28;20071;-76
2022/07/28 07:11:15;;;;;;;4.25;0.35;;;18.60;72.80;;;;;;5032988;28;20033;-76
2022/07/28 07:13:41;;;;;;;3.88;0.30;;;18.70;72.40;;;;;;5033288;28;20121;-76
2022/07/28 07:16:06;;;;;;;2.67;0.20;;;18.60;70.50;;;;;;5032959;28;20398;-77
2022/07/28 07:18:32;;;;;;;4.35;0.30;;;18.50;70.30;;;;;;5033036;28;20116;-77
2022/07/28 07:20:57;;;;;;;2.35;0.10;;;18.50;71.00;;;;;;5032983;28;20060;-77
2022/07/28 07:23:23;;;;;;;3.92;0.35;;;18.60;70.60;;;;;;5032691;28;20046;-77
2022/07/28 07:25:49;;;;;;;1.55;0.20;;;18.60;70.90;;;;;;5032745;28;20041;-76
2022/07/28 07:28:14;;;;;;;2.78;0.22;;;18.70;70.60;;;;;;5032788;28;20021;-77
2022/07/28 07:30:40;;;;;;;2.70;0.30;;;18.80;69.70;;;;;;5032491;28;20034;-77
2022/07/28 07:33:06;;;;;;;2.15;0.20;;;18.80;69.30;;;;;;5032392;28;20029;-75
2022/07/28 07:35:32;;;;;;;2.45;0.25;;;18.80;69.30;;;;;;5033081;28;20025;-77
2022/07/28 07:37:58;;;;;;;5.97;0.50;;;18.80;69.70;;;;;;5032616;28;20424;-77
2022/07/28 07:40:23;;;;;;;2.78;0.30;;;18.90;69.40;;;;;;5032994;28;20072;-77
2022/07/28 07:42:49;;;;;;;4.32;0.35;;;18.90;68.90;;;;;;5032905;28;20045;-76
2022/07/28 07:45:14;;;;;;;3.05;0.20;;;18.90;69.40;;;;;;5032683;28;20034;-76
2022/07/28 07:47:40;;;;;;;5.00;0.30;;;18.80;68.70;;;;;;5032571;28;20087;-75
2022/07/28 07:50:06;;;;;;;3.75;0.50;;;18.80;69.80;;;;;;5032785;28;20484;-75
2022/07/28 07:52:31;;;;;;;4.93;0.35;;;18.70;69.80;;;;;;5032092;28;20107;-75
2022/07/28 07:54:57;;;;;;;2.25;0.20;;;18.60;70.90;;;;;;5032551;28;20055;-76
2022/07/28 07:57:22;;;;;;;2.35;0.20;;;18.70;70.70;;;;;;5032526;28;20049;-76
2022/07/28 07:59:48;;;;;;;2.05;0.30;;;18.80;69.80;;;;;;5032551;28;20088;-75
2022/07/28 08:02:14;;;;;;;4.50;0.22;;;18.90;70.40;;;;;;5032376;28;20053;-75
2022/07/28 08:04:39;;;;;;;3.03;0.25;;;19.00;70.10;;;;;;5032761;28;20074;-76
2022/07/28 08:07:05;;;;;;;0.98;0.13;;;19.00;69.30;;;;;;5032504;28;20277;-76
2022/07/28 08:09:31;;;;;;;3.67;0.20;;;19.20;67.90;;;;;;5032530;28;20136;-76
2022/07/28 08:11:56;;;;;;;3.65;0.20;;;19.20;66.20;;;;;;5032016;28;20084;-78
2022/07/28 08:14:22;;;;;;;5.10;0.40;;;19.10;67.90;;;;;;5032166;28;20105;-77
2022/07/28 08:16:47;;;;;;;2.58;0.20;;;19.10;67.40;;;;;;5032322;28;20465;-78
2022/07/28 08:19:13;;;;;;;6.63;0.28;;;19.20;68.20;;;;;;5032425;28;20041;-75
2022/07/28 08:21:39;;;;;;;1.85;0.28;;;19.30;66.40;;;;;;5031776;28;20123;-77
2022/07/28 08:24:05;;;;;;;4.85;0.40;;;19.30;67.40;;;;;;5032226;28;20030;-76
2022/07/28 08:26:30;;;;;;;4.05;0.20;;;19.30;65.70;;;;;;5032339;28;20034;-77
2022/07/28 08:28:56;;;;;;;1.45;0.10;;;19.30;65.90;;;;;;5031762;28;20022;-76
2022/07/28 08:31:21;;;;;;;2.80;0.20;;;19.50;68.00;;;;;;5032415;28;20033;-76
2022/07/28 08:33:50;;;;;;;1.95;0.43;;;19.70;65.90;;;;;;5032403;28;20025;-76
2022/07/28 08:36:16;;;;;;;1.10;0.20;;;20.00;65.80;;;;;;5032269;28;20030;-76
2022/07/28 08:38:41;;;;;;;2.22;0.20;;;20.20;65.30;;;;;;5031751;28;20072;-76
2022/07/28 08:41:17;;;;;;;1.08;0.10;;;20.40;63.90;;;;;;5032133;28;20071;-77
2022/07/28 08:43:44;;;;;;;1.45;0.20;;;20.60;64.30;;;;;;5034565;28;20025;-76
2022/07/28 08:46:10;;;;;;;2.42;0.30;;;20.70;62.60;;;;;;5035928;28;20033;-77
2022/07/28 08:48:37;;;;;;;1.58;0.13;;;20.70;63.80;;;;;;5035656;28;20033;-77
2022/07/28 08:51:06;;;;;;;1.35;0.35;;;20.80;63.30;;;;;;5035623;28;20032;-76
2022/07/28 08:53:37;;;;;;;0.75;0.10;;;21.00;60.90;;;;;;5035246;28;20033;-77
2022/07/28 08:56:12;;;;;;;2.05;0.10;;;20.90;60.60;;;;;;5035726;28;20071;-76
2022/07/28 08:58:38;;;;;;;1.35;0.10;;;20.80;61.50;;;;;;5035719;28;20083;-76
2022/07/28 09:01:07;;;;;;;0.73;0.10;;;21.00;61.60;;;;;;5035345;28;20018;-78
2022/07/28 09:03:33;;;;;;;0.80;0.20;;;21.20;60.70;;;;;;5035694;28;20029;-77
2022/07/28 09:05:59;;;;;;;1.80;0.20;;;21.30;60.00;;;;;;5035069;28;20040;-75
2022/07/28 09:08:25;;;;;;;2.45;0.25;;;21.30;59.40;;;;;;5035421;28;20026;-74
2022/07/28 09:10:52;;;;;;;2.15;0.20;;;21.20;60.30;;;;;;5035203;28;20480;-76
2022/07/28 09:13:18;;;;;;;2.13;0.20;;;21.30;59.10;;;;;;5034961;28;20028;-75
2022/07/28 09:15:45;;;;;;;3.35;0.20;;;21.40;59.30;;;;;;5034690;28;20384;-75
2022/07/28 09:18:12;;;;;;;4.63;0.50;;;21.50;59.70;;;;;;5034602;28;20106;-75
2022/07/28 09:20:39;;;;;;;2.90;0.50;;;21.70;60.00;;;;;;5034771;28;20033;-75
2022/07/28 09:23:06;;;;;;;2.85;0.30;;;21.80;57.90;;;;;;5034794;28;20465;-75
2022/07/28 09:25:32;;;;;;;1.23;0.20;;;21.90;59.20;;;;;;5035538;28;20046;-75
2022/07/28 09:28:13;;;;;;;1.77;0.25;;;22.10;57.30;;;;;;5035528;28;20021;-75
2022/07/28 09:30:41;;;;;;;1.23;0.15;;;22.20;56.50;;;;;;5035861;28;20029;-75
2022/07/28 09:33:28;;;;;;;3.35;0.30;;;22.20;56.70;;;;;;5034562;28;20083;-75
2022/07/28 09:35:56;;;;;;;1.95;0.20;;;22.30;58.80;;;;;;5033225;28;20665;-75
2022/07/28 09:38:28;;;;;;;3.00;0.20;;;22.30;59.60;;;;;;5032715;28;20029;-75
2022/07/28 09:41:00;;;;;;;;;;;22.50;57.60;;;;;;5033329;28;20026;-75
2022/07/28 09:43:31;;;;;;;0.60;0.10;;;22.60;57.40;;;;;;5032573;28;19915;-75
2022/07/28 09:46:11;;;;;;;2.60;0.20;;;22.60;57.80;;;;;;5032980;28;20040;-75
2022/07/28 09:48:48;;;;;;;2.58;0.20;;;22.70;56.30;;;;;;5033589;28;20032;-75
2022/07/28 09:51:16;;;;;;;1.63;0.20;;;22.60;56.20;;;;;;5034685;28;20025;-75
2022/07/28 09:53:42;;;;;;;1.95;0.15;;;22.60;57.30;;;;;;5034441;28;20486;-74
2022/07/28 09:56:09;;;;;;;2.00;0.15;;;22.80;55.40;;;;;;5034124;28;20040;-75
2022/07/28 09:58:35;;;;;;;5.22;0.20;;;22.80;55.70;;;;;;5034970;28;20033;-75
2022/07/28 10:01:12;;;;;;;0.98;0.10;;;22.80;55.00;;;;;;5034556;28;20033;-74
2022/07/28 10:03:41;;;;;;;0.98;0.15;;;22.90;53.40;;;;;;5034378;28;20035;-75
2022/07/28 10:06:13;;;;;;;1.40;0.17;;;22.90;55.00;;;;;;5034989;28;20116;-75
2022/07/28 10:08:42;;;;;;;2.08;0.30;;;22.90;55.10;;;;;;5034756;28;20025;-74
2022/07/28 10:11:10;;;;;;;2.50;0.17;;;23.10;55.20;;;;;;5034731;28;20033;-75
2022/07/28 10:13:50;;;;;;;2.63;0.50;;;23.20;55.10;;;;;;5034428;28;20026;-75
2022/07/28 10:16:17;;;;;;;1.13;0.30;;;23.30;55.20;;;;;;5034102;28;20045;-75
2022/07/28 10:18:43;;;;;;;3.65;0.30;;;23.40;53.50;;;;;;5016669;28;20104;-75
2022/07/28 10:21:15;;;;;;;2.92;0.20;;;23.50;53.80;;;;;;5034356;28;20026;-75
2022/07/28 10:23:46;;;;;;;1.25;0.20;;;23.50;54.20;;;;;;5034341;28;20068;-75
2022/07/28 10:26:13;;;;;;;1.60;0.10;;;23.60;53.90;;;;;;5033895;28;20112;-75
2022/07/28 10:28:45;;;;;;;1.60;0.10;;;23.50;54.60;;;;;;5034153;28;20033;-75
2022/07/28 10:31:16;;;;;;;4.50;0.10;;;23.70;55.10;;;;;;5034284;28;20025;-75
2022/07/28 10:33:49;;;;;;;2.65;0.20;;;23.70;53.30;;;;;;5034681;28;20109;-75
2022/07/28 10:36:18;;;;;;;1.55;0.20;;;23.60;54.10;;;;;;5033578;28;20473;-75
2022/07/28 10:38:44;;;;;;;1.83;0.20;;;23.50;53.90;;;;;;5033777;28;20030;-75
2022/07/28 10:41:11;;;;;;;4.82;0.30;;;23.70;53.60;;;;;;5033808;28;20423;-75
2022/07/28 10:43:38;;;;;;;1.08;0.20;;;23.70;53.70;;;;;;5033345;28;20590;-75
2022/07/28 10:46:07;;;;;;;4.10;0.30;;;23.70;53.10;;;;;;5033912;28;20048;-75
2022/07/28 10:48:36;;;;;;;1.70;0.43;;;23.60;53.20;;;;;;5033768;28;20089;-75
2022/07/28 10:51:01;;;;;;;1.45;0.30;;;23.60;54.30;;;;;;5033849;28;20103;-75
2022/07/28 10:53:44;;;;;;;1.67;0.10;;;23.70;53.30;;;;;;5033598;28;20060;-75
2022/07/28 10:56:16;;;;;;;1.63;0.20;;;23.70;53.20;;;;;;5033608;28;20025;-76
2022/07/28 10:59:32;;;;;;;2.75;0.40;;;23.90;53.00;;;;;;5033430;28;20503;-75
2022/07/28 11:01:58;;;;;;;1.02;0.10;;;24.20;52.90;;;;;;4991979;28;20528;-75
2022/07/28 11:04:46;;;;;;;0.68;0.10;;;24.30;52.80;;;;;;5028817;28;20068;-75
2022/07/28 11:07:14;;;;;;;1.08;0.20;;;24.40;52.00;;;;;;5033404;28;20384;-75
2022/07/28 11:09:40;;;;;;;1.17;0.15;;;24.50;51.00;;;;;;5033201;28;20481;-76
2022/07/28 11:12:14;;;;;;;2.63;0.10;;;24.60;51.90;;;;;;5033313;28;20025;-75
2022/07/28 11:14:41;;;;;;;1.40;0.20;;;24.60;52.00;;;;;;5033665;28;20033;-75
2022/07/28 11:17:06;;;;;;;1.65;0.10;;;24.60;51.60;;;;;;5033193;28;20026;-75
2022/07/28 11:19:44;;;;;;;0.73;0.10;;;24.60;51.50;;;;;;5033056;28;20029;-75
2022/07/28 11:24:56;;;;;;;2.58;0.10;;;24.70;51.10;;;;;;5033152;28;20052;-75
2022/07/28 11:27:45;;;;;;;2.72;0.20;;;24.70;51.50;;;;;;5033216;28;20169;-75
2022/07/28 11:30:35;;;;;;;2.15;0.20;;;24.80;51.50;;;;;;5033212;28;20393;-75
2022/07/28 11:33:02;;;;;;;3.70;0.38;;;24.80;50.60;;;;;;5033154;28;20017;-76
2022/07/28 11:35:50;;;;;;;4.07;0.32;;;25.00;49.80;;;;;;5033305;28;20084;-75
2022/07/28 11:38:16;;;;;;;1.02;0.10;;;25.00;50.20;;;;;;5032934;28;20072;-75
2022/07/28 11:40:50;;;;;;;2.45;0.30;;;25.00;49.40;;;;;;5032878;28;20034;-75
2022/07/28 11:43:22;;;;;;;1.55;0.20;;;25.10;50.50;;;;;;5032792;28;20025;-75
2022/07/28 11:46:14;;;;;;;0.82;0.20;;;25.20;50.40;;;;;;5032994;28;20155;-75
2022/07/28 11:48:42;;;;;;;1.20;0.17;;;25.20;49.40;;;;;;5027761;28;20358;-75
2022/07/28 11:51:10;;;;;;;1.55;0.13;;;25.20;49.40;;;;;;5033110;28;20439;-75
2022/07/28 11:53:50;;;;;;;1.83;0.57;;;25.10;50.30;;;;;;5032735;28;20084;-75
2022/07/28 11:56:21;;;;;;;1.83;0.20;;;25.10;52.00;;;;;;5032941;28;20034;-75
2022/07/28 11:59:00;;;;;;;1.27;0.20;;;25.10;50.70;;;;;;5033068;28;20089;-75
2022/07/28 12:01:26;;;;;;;4.63;0.35;;;25.20;50.20;;;;;;5032804;28;20060;-76
2022/07/28 12:03:53;;;;;;;2.38;0.20;;;25.20;49.50;;;;;;5032970;28;20045;-75
2022/07/28 12:06:22;;;;;;;2.17;0.30;;;25.00;48.20;;;;;;5032377;28;20116;-75
2022/07/28 12:09:00;;;;;;;1.13;0.20;;;24.90;50.20;;;;;;5032963;28;20022;-75
2022/07/28 12:11:29;;;;;;;2.13;0.30;;;25.00;50.90;;;;;;5032707;28;20108;-75
2022/07/28 12:13:59;;;;;;;2.42;0.20;;;25.20;50.00;;;;;;5032781;28;20385;-75
2022/07/28 12:16:32;;;;;;;1.88;0.20;;;25.30;49.70;;;;;;5032712;28;20061;-75
2022/07/28 12:18:59;;;;;;;2.58;0.20;;;25.30;50.50;;;;;;5035679;28;20377;-76
2022/07/28 12:21:37;;;;;;;1.13;0.20;;;25.50;49.90;;;;;;5036247;28;20442;-75
2022/07/28 12:24:04;;;;;;;2.17;0.20;;;25.70;49.50;;;;;;5036503;28;20029;-75
2022/07/28 12:26:31;;;;;;;2.72;0.50;;;25.60;48.70;;;;;;5036064;28;20112;-75
2022/07/28 12:28:57;;;;;;;2.25;0.20;;;25.40;48.20;;;;;;5036523;28;20104;-76
2022/07/28 12:31:26;;;;;;;0.85;0.20;;;25.50;48.40;;;;;;5036204;28;20029;-76
2022/07/28 12:33:51;;;;;;;2.00;0.28;;;25.70;48.10;;;;;;5036132;28;20025;-76
2022/07/28 12:36:20;;;;;;;1.52;0.20;;;25.80;47.30;;;;;;5036135;28;20032;-75
2022/07/28 12:38:46;;;;;;;3.25;0.45;;;25.70;47.10;;;;;;5036272;28;20417;-75
2022/07/28 12:41:15;;;;;;;1.33;0.20;;;25.50;47.50;;;;;;5035933;28;20107;-75
2022/07/28 12:43:49;;;;;;;3.40;0.20;;;25.40;48.30;;;;;;5036079;28;20026;-75
2022/07/28 12:46:23;;;;;;;2.80;0.20;;;25.40;49.80;;;;;;5035923;28;20435;-75
2022/07/28 12:48:49;;;;;;;3.67;0.38;;;25.60;50.70;;;;;;5035848;28;20029;-75
2022/07/28 12:51:38;;;;;;;3.25;0.20;;;25.80;48.70;;;;;;5035988;28;20091;-76
2022/07/28 12:54:06;;;;;;;2.53;0.20;;;26.00;49.40;;;;;;5036082;28;20028;-75
2022/07/28 12:56:47;;;;;;;2.50;0.20;;;26.20;48.10;;;;;;5035825;28;20021;-76
2022/07/28 12:59:14;;;;;;;2.22;0.40;;;26.30;48.70;;;;;;5035469;28;20017;-76
2022/07/28 13:01:51;;;;;;;1.02;0.20;;;26.30;47.10;;;;;;5035877;28;20419;-76
2022/07/28 13:04:39;;;;;;;1.92;0.20;;;26.30;47.50;;;;;;5035728;28;20470;-75
2022/07/28 13:07:10;;;;;;;4.45;0.47;;;26.40;48.30;;;;;;5035619;28;20033;-76
2022/07/28 13:09:40;;;;;;;2.40;0.13;;;26.40;48.30;;;;;;5035449;28;20022;-76
2022/07/28 13:12:23;;;;;;;1.15;0.30;;;26.50;47.70;;;;;;5035619;28;20052;-76
2022/07/28 13:14:51;;;;;;;4.45;0.40;;;26.60;48.30;;;;;;5035550;28;20021;-76
2022/07/28 13:17:18;;;;;;;2.42;0.20;;;26.60;46.30;;;;;;5035846;28;20029;-76
2022/07/28 13:19:44;;;;;;;1.73;0.20;;;26.70;46.90;;;;;;5035183;28;20025;-76
2022/07/28 13:22:10;;;;;;;1.20;0.20;;;26.70;47.10;;;;;;5035016;28;20111;-76
2022/07/28 13:24:36;;;;;;;2.10;0.20;;;26.60;46.30;;;;;;5035146;28;20041;-76
2022/07/28 13:27:02;;;;;;;3.10;0.30;;;26.30;46.20;;;;;;5035242;28;20052;-76
2022/07/28 13:29:33;;;;;;;1.02;0.20;;;26.30;46.70;;;;;;5034135;28;20061;-76
2022/07/28 13:31:59;;;;;;;2.30;0.23;;;26.00;47.10;;;;;;5035137;28;20524;-76
2022/07/28 13:34:25;;;;;;;3.58;0.30;;;25.90;48.10;;;;;;5035021;28;20330;-76
2022/07/28 13:36:51;;;;;;;3.70;0.20;;;25.70;47.50;;;;;;5035006;28;20408;-76
2022/07/28 13:39:17;;;;;;;2.67;0.63;;;25.50;47.30;;;;;;5034946;28;20048;-75
2022/07/28 13:41:43;;;;;;;2.35;0.30;;;25.50;47.90;;;;;;5034778;28;20068;-75
2022/07/28 13:44:08;;;;;;;1.35;0.28;;;25.60;48.00;;;;;;5035133;28;20037;-76
2022/07/28 13:46:36;;;;;;;2.72;0.40;;;25.70;48.60;;;;;;5034839;28;20033;-76
2022/07/28 13:49:02;;;;;;;2.53;0.20;;;25.90;48.50;;;;;;5035009;28;20033;-76
2022/07/28 13:51:27;;;;;;;1.33;0.40;;;26.10;48.90;;;;;;5034865;28;20361;-76
2022/07/28 13:53:53;;;;;;;2.63;0.52;;;26.30;47.90;;;;;;5035045;28;20045;-76
2022/07/28 13:56:19;;;;;;;1.23;0.20;;;26.50;48.20;;;;;;5034659;28;20468;-76
2022/07/28 13:58:45;;;;;;;5.30;0.28;;;26.60;47.70;;;;;;5034976;28;20048;-76
2022/07/28 14:01:10;;;;;;;3.35;0.20;;;26.40;47.10;;;;;;5034318;28;20029;-76
2022/07/28 14:03:36;;;;;;;2.80;0.20;;;26.30;47.20;;;;;;5034608;28;20033;-76
2022/07/28 14:06:04;;;;;;;3.38;0.25;;;26.10;47.40;;;;;;5034681;28;20483;-76
2022/07/28 14:08:30;;;;;;;1.88;0.30;;;26.10;47.60;;;;;;5034487;28;20499;-76
2022/07/28 14:10:57;;;;;;;2.45;0.20;;;26.00;49.10;;;;;;5034134;28;20037;-76
2022/07/28 14:13:23;;;;;;;2.25;0.30;;;26.20;49.10;;;;;;5034424;28;20033;-76
2022/07/28 14:15:49;;;;;;;0.88;0.20;;;26.20;48.70;;;;;;5034455;28;20029;-76
2022/07/28 14:18:15;;;;;;;1.98;0.40;;;26.20;47.50;;;;;;5034472;28;20452;-76
2022/07/28 14:20:40;;;;;;;2.35;0.40;;;26.10;47.60;;;;;;5034019;28;20381;-76